sensor_id;sensor_type;location;lat;lon;timestamp;P1;durP1;ratioP1;P2;durP2;ratioP2
74616;SDS011;63123;50.906;4.198;2023-01-24T00:01:54;11.00;;;10.10;;
74616;SDS011;63123;50.906;4.198;2023-01-24T00:04:20;10.02;;;9.27;;
74616;SDS011;63123;50.906;4.198;2023-01-24T00:06:45;11.00;;;10.10;;
74616;SDS011;63123;50.906;4.198;2023-01-24T00:09:11;11.85;;;10.80;;
74616;SDS011;63123;50.906;4.198;2023-01-24T00:11:37;10.68;;;9.82;;
74616;SDS011;63123;50.906;4.198;2023-01-24T00:14:03;10.95;;;10.05;;
74616;SDS011;63123;50.906;4.198;2023-01-24T00:16:28;12.52;;;11.52;;
74616;SDS011;63123;50.906;4.198;2023-01-24T00:18:54;11.98;;;10.98;;
74616;SDS011;63123;50.906;4.198;2023-01-24T00:21:20;11.45;;;10.48;;
74616;SDS011;63123;50.906;4.198;2023-01-24T00:23:49;12.68;;;11.57;;
74616;SDS011;63123;50.906;4.198;2023-01-24T00:26:16;11.30;;;10.30;;
74616;SDS011;63123;50.906;4.198;2023-01-24T00:28:43;11.68;;;10.68;;
74616;SDS011;63123;50.906;4.198;2023-01-24T00:31:09;11.00;;;10.10;;
74616;SDS011;63123;50.906;4.198;2023-01-24T00:33:34;9.90;;;9.10;;
74616;SDS011;63123;50.906;4.198;2023-01-24T00:36:00;12.27;;;11.18;;
74616;SDS011;63123;50.906;4.198;2023-01-24T00:38:27;11.00;;;10.13;;
74616;SDS011;63123;50.906;4.198;2023-01-24T00:40:53;11.68;;;10.68;;
74616;SDS011;63123;50.906;4.198;2023-01-24T00:43:19;11.27;;;10.38;;
74616;SDS011;63123;50.906;4.198;2023-01-24T00:45:44;10.93;;;9.93;;
74616;SDS011;63123;50.906;4.198;2023-01-24T00:48:10;11.30;;;10.40;;
74616;SDS011;63123;50.906;4.198;2023-01-24T00:50:36;10.65;;;9.85;;
74616;SDS011;63123;50.906;4.198;2023-01-24T00:53:02;10.68;;;9.82;;
74616;SDS011;63123;50.906;4.198;2023-01-24T00:55:28;10.23;;;9.43;;
74616;SDS011;63123;50.906;4.198;2023-01-24T00:57:54;10.45;;;9.57;;
74616;SDS011;63123;50.906;4.198;2023-01-24T01:00:20;10.30;;;9.50;;
74616;SDS011;63123;50.906;4.198;2023-01-24T01:02:47;10.25;;;9.45;;
74616;SDS011;63123;50.906;4.198;2023-01-24T01:05:13;11.43;;;10.52;;
74616;SDS011;63123;50.906;4.198;2023-01-24T01:07:38;10.50;;;9.70;;
74616;SDS011;63123;50.906;4.198;2023-01-24T01:10:04;11.57;;;10.55;;
74616;SDS011;63123;50.906;4.198;2023-01-24T01:12:30;11.02;;;10.13;;
74616;SDS011;63123;50.906;4.198;2023-01-24T01:14:56;10.90;;;10.00;;
74616;SDS011;63123;50.906;4.198;2023-01-24T01:17:21;10.90;;;10.00;;
74616;SDS011;63123;50.906;4.198;2023-01-24T01:19:50;11.10;;;10.20;;
74616;SDS011;63123;50.906;4.198;2023-01-24T01:22:16;10.93;;;10.13;;
74616;SDS011;63123;50.906;4.198;2023-01-24T01:24:42;10.20;;;9.40;;
74616;SDS011;63123;50.906;4.198;2023-01-24T01:27:08;11.88;;;10.98;;
74616;SDS011;63123;50.906;4.198;2023-01-24T01:29:33;11.30;;;10.32;;
74616;SDS011;63123;50.906;4.198;2023-01-24T01:31:59;10.52;;;9.73;;
74616;SDS011;63123;50.906;4.198;2023-01-24T01:34:25;11.25;;;10.43;;
74616;SDS011;63123;50.906;4.198;2023-01-24T01:36:51;10.48;;;9.60;;
74616;SDS011;63123;50.906;4.198;2023-01-24T01:39:16;11.10;;;10.20;;
74616;SDS011;63123;50.906;4.198;2023-01-24T01:41:42;10.20;;;9.40;;
74616;SDS011;63123;50.906;4.198;2023-01-24T01:44:20;10.43;;;9.55;;
74616;SDS011;63123;50.906;4.198;2023-01-24T01:49:39;10.50;;;9.60;;
74616;SDS011;63123;50.906;4.198;2023-01-24T01:52:11;11.40;;;10.50;;
74616;SDS011;63123;50.906;4.198;2023-01-24T01:54:38;9.88;;;9.07;;
74616;SDS011;63123;50.906;4.198;2023-01-24T01:57:16;10.90;;;10.00;;
74616;SDS011;63123;50.906;4.198;2023-01-24T01:59:51;11.77;;;10.88;;
74616;SDS011;63123;50.906;4.198;2023-01-24T02:02:28;10.25;;;9.30;;
74616;SDS011;63123;50.906;4.198;2023-01-24T02:04:56;11.05;;;10.15;;
74616;SDS011;63123;50.906;4.198;2023-01-24T02:07:32;10.48;;;9.60;;
74616;SDS011;63123;50.906;4.198;2023-01-24T02:10:05;10.98;;;10.10;;
74616;SDS011;63123;50.906;4.198;2023-01-24T02:12:32;10.55;;;9.65;;
74616;SDS011;63123;50.906;4.198;2023-01-24T02:15:05;12.07;;;11.07;;
74616;SDS011;63123;50.906;4.198;2023-01-24T02:17:53;10.93;;;10.02;;
74616;SDS011;63123;50.906;4.198;2023-01-24T02:20:21;10.13;;;9.32;;
74616;SDS011;63123;50.906;4.198;2023-01-24T02:25:36;10.85;;;9.88;;
74616;SDS011;63123;50.906;4.198;2023-01-24T02:28:04;9.95;;;9.13;;
74616;SDS011;63123;50.906;4.198;2023-01-24T02:30:31;9.30;;;8.60;;
74616;SDS011;63123;50.906;4.198;2023-01-24T02:32:57;9.80;;;9.00;;
74616;SDS011;63123;50.906;4.198;2023-01-24T02:35:23;10.63;;;9.82;;
74616;SDS011;63123;50.906;4.198;2023-01-24T02:37:55;10.48;;;9.55;;
74616;SDS011;63123;50.906;4.198;2023-01-24T02:40:24;11.50;;;10.60;;
74616;SDS011;63123;50.906;4.198;2023-01-24T02:42:52;10.25;;;9.38;;
74616;SDS011;63123;50.906;4.198;2023-01-24T02:45:20;9.38;;;8.68;;
74616;SDS011;63123;50.906;4.198;2023-01-24T02:47:55;11.20;;;10.20;;
74616;SDS011;63123;50.906;4.198;2023-01-24T02:50:22;9.75;;;8.93;;
74616;SDS011;63123;50.906;4.198;2023-01-24T02:52:50;10.13;;;9.27;;
74616;SDS011;63123;50.906;4.198;2023-01-24T02:55:34;9.52;;;8.73;;
74616;SDS011;63123;50.906;4.198;2023-01-24T02:58:19;10.57;;;9.68;;
74616;SDS011;63123;50.906;4.198;2023-01-24T03:00:44;10.30;;;9.45;;
74616;SDS011;63123;50.906;4.198;2023-01-24T03:03:10;9.85;;;9.05;;
74616;SDS011;63123;50.906;4.198;2023-01-24T03:05:35;11.23;;;10.32;;
74616;SDS011;63123;50.906;4.198;2023-01-24T03:08:20;10.33;;;9.43;;
74616;SDS011;63123;50.906;4.198;2023-01-24T03:10:45;9.15;;;8.38;;
74616;SDS011;63123;50.906;4.198;2023-01-24T03:13:11;10.52;;;9.73;;
74616;SDS011;63123;50.906;4.198;2023-01-24T03:15:58;9.95;;;9.13;;
74616;SDS011;63123;50.906;4.198;2023-01-24T03:18:43;9.68;;;8.88;;
74616;SDS011;63123;50.906;4.198;2023-01-24T03:21:27;10.27;;;9.48;;
74616;SDS011;63123;50.906;4.198;2023-01-24T03:24:11;10.50;;;9.70;;
74616;SDS011;63123;50.906;4.198;2023-01-24T03:26:55;10.50;;;9.65;;
74616;SDS011;63123;50.906;4.198;2023-01-24T03:29:40;9.77;;;8.97;;
74616;SDS011;63123;50.906;4.198;2023-01-24T03:32:24;9.90;;;9.10;;
74616;SDS011;63123;50.906;4.198;2023-01-24T03:35:08;9.57;;;8.82;;
74616;SDS011;63123;50.906;4.198;2023-01-24T03:37:33;9.93;;;9.07;;
74616;SDS011;63123;50.906;4.198;2023-01-24T03:40:17;9.47;;;8.67;;
74616;SDS011;63123;50.906;4.198;2023-01-24T03:42:43;9.75;;;8.95;;
74616;SDS011;63123;50.906;4.198;2023-01-24T03:45:16;9.27;;;8.50;;
74616;SDS011;63123;50.906;4.198;2023-01-24T03:47:44;9.57;;;8.77;;
74616;SDS011;63123;50.906;4.198;2023-01-24T03:50:33;9.63;;;8.82;;
74616;SDS011;63123;50.906;4.198;2023-01-24T03:53:20;8.45;;;7.78;;
74616;SDS011;63123;50.906;4.198;2023-01-24T03:55:46;9.23;;;8.43;;
74616;SDS011;63123;50.906;4.198;2023-01-24T03:58:20;8.90;;;8.20;;
74616;SDS011;63123;50.906;4.198;2023-01-24T04:00:46;9.25;;;8.52;;
74616;SDS011;63123;50.906;4.198;2023-01-24T04:03:12;10.20;;;9.40;;
74616;SDS011;63123;50.906;4.198;2023-01-24T04:05:38;9.25;;;8.55;;
74616;SDS011;63123;50.906;4.198;2023-01-24T04:08:03;9.13;;;8.43;;
74616;SDS011;63123;50.906;4.198;2023-01-24T04:10:30;11.02;;;10.13;;
74616;SDS011;63123;50.906;4.198;2023-01-24T04:12:56;9.93;;;9.13;;
74616;SDS011;63123;50.906;4.198;2023-01-24T04:15:26;8.82;;;8.13;;
74616;SDS011;63123;50.906;4.198;2023-01-24T04:17:54;10.25;;;9.45;;
74616;SDS011;63123;50.906;4.198;2023-01-24T04:20:24;9.20;;;8.50;;
74616;SDS011;63123;50.906;4.198;2023-01-24T04:22:51;11.05;;;10.15;;
74616;SDS011;63123;50.906;4.198;2023-01-24T04:25:17;8.75;;;8.07;;
74616;SDS011;63123;50.906;4.198;2023-01-24T04:27:42;8.90;;;8.10;;
74616;SDS011;63123;50.906;4.198;2023-01-24T04:30:09;8.93;;;8.23;;
74616;SDS011;63123;50.906;4.198;2023-01-24T04:32:36;8.07;;;7.45;;
74616;SDS011;63123;50.906;4.198;2023-01-24T04:35:02;8.60;;;7.90;;
74616;SDS011;63123;50.906;4.198;2023-01-24T04:37:29;9.50;;;8.70;;
74616;SDS011;63123;50.906;4.198;2023-01-24T04:39:55;10.02;;;9.23;;
74616;SDS011;63123;50.906;4.198;2023-01-24T04:42:21;9.38;;;8.68;;
74616;SDS011;63123;50.906;4.198;2023-01-24T04:44:47;8.57;;;7.93;;
74616;SDS011;63123;50.906;4.198;2023-01-24T04:47:13;8.80;;;8.10;;
74616;SDS011;63123;50.906;4.198;2023-01-24T04:49:38;8.68;;;7.97;;
74616;SDS011;63123;50.906;4.198;2023-01-24T04:52:05;9.27;;;8.55;;
74616;SDS011;63123;50.906;4.198;2023-01-24T04:54:31;9.32;;;8.52;;
74616;SDS011;63123;50.906;4.198;2023-01-24T04:56:57;8.55;;;7.85;;
74616;SDS011;63123;50.906;4.198;2023-01-24T04:59:22;8.73;;;8.02;;
74616;SDS011;63123;50.906;4.198;2023-01-24T05:01:48;10.05;;;9.15;;
74616;SDS011;63123;50.906;4.198;2023-01-24T05:04:13;9.20;;;8.40;;
74616;SDS011;63123;50.906;4.198;2023-01-24T05:06:39;9.50;;;8.70;;
74616;SDS011;63123;50.906;4.198;2023-01-24T05:09:05;8.65;;;7.95;;
74616;SDS011;63123;50.906;4.198;2023-01-24T05:11:30;8.85;;;8.15;;
74616;SDS011;63123;50.906;4.198;2023-01-24T05:13:56;8.75;;;8.05;;
74616;SDS011;63123;50.906;4.198;2023-01-24T05:16:22;9.07;;;8.38;;
74616;SDS011;63123;50.906;4.198;2023-01-24T05:18:47;8.98;;;8.27;;
74616;SDS011;63123;50.906;4.198;2023-01-24T05:21:14;8.70;;;8.00;;
74616;SDS011;63123;50.906;4.198;2023-01-24T05:23:41;8.98;;;8.27;;
74616;SDS011;63123;50.906;4.198;2023-01-24T05:26:07;9.40;;;8.70;;
74616;SDS011;63123;50.906;4.198;2023-01-24T05:28:33;8.88;;;8.18;;
74616;SDS011;63123;50.906;4.198;2023-01-24T05:30:59;8.73;;;8.02;;
74616;SDS011;63123;50.906;4.198;2023-01-24T05:33:29;8.95;;;8.25;;
74616;SDS011;63123;50.906;4.198;2023-01-24T05:38:31;9.55;;;8.75;;
74616;SDS011;63123;50.906;4.198;2023-01-24T05:41:06;9.07;;;8.38;;
74616;SDS011;63123;50.906;4.198;2023-01-24T05:43:33;9.68;;;8.88;;
74616;SDS011;63123;50.906;4.198;2023-01-24T05:46:00;9.00;;;8.30;;
74616;SDS011;63123;50.906;4.198;2023-01-24T05:48:56;9.77;;;9.07;;
74616;SDS011;63123;50.906;4.198;2023-01-24T05:51:21;8.88;;;8.18;;
74616;SDS011;63123;50.906;4.198;2023-01-24T05:53:47;8.82;;;8.18;;
74616;SDS011;63123;50.906;4.198;2023-01-24T05:56:14;9.63;;;8.82;;
74616;SDS011;63123;50.906;4.198;2023-01-24T05:58:41;8.25;;;7.55;;
74616;SDS011;63123;50.906;4.198;2023-01-24T06:01:08;9.23;;;8.52;;
74616;SDS011;63123;50.906;4.198;2023-01-24T06:03:48;8.70;;;8.00;;
74616;SDS011;63123;50.906;4.198;2023-01-24T06:06:16;9.30;;;8.50;;
74616;SDS011;63123;50.906;4.198;2023-01-24T06:08:43;8.00;;;7.40;;
74616;SDS011;63123;50.906;4.198;2023-01-24T06:11:11;8.85;;;8.15;;
74616;SDS011;63123;50.906;4.198;2023-01-24T06:13:44;9.82;;;9.02;;
74616;SDS011;63123;50.906;4.198;2023-01-24T06:16:14;8.80;;;8.10;;
74616;SDS011;63123;50.906;4.198;2023-01-24T06:18:44;9.27;;;8.50;;
74616;SDS011;63123;50.906;4.198;2023-01-24T06:23:47;7.93;;;7.32;;
74616;SDS011;63123;50.906;4.198;2023-01-24T06:26:13;9.60;;;8.80;;
74616;SDS011;63123;50.906;4.198;2023-01-24T06:28:39;9.25;;;8.48;;
74616;SDS011;63123;50.906;4.198;2023-01-24T06:31:11;9.55;;;8.75;;
74616;SDS011;63123;50.906;4.198;2023-01-24T06:33:56;8.40;;;7.80;;
74616;SDS011;63123;50.906;4.198;2023-01-24T06:39:22;8.80;;;8.18;;
74616;SDS011;63123;50.906;4.198;2023-01-24T06:41:48;9.60;;;8.82;;
74616;SDS011;63123;50.906;4.198;2023-01-24T06:44:14;9.20;;;8.38;;
74616;SDS011;63123;50.906;4.198;2023-01-24T06:46:39;9.05;;;8.32;;
74616;SDS011;63123;50.906;4.198;2023-01-24T06:49:05;9.35;;;8.65;;
74616;SDS011;63123;50.906;4.198;2023-01-24T06:51:31;9.90;;;9.10;;
74616;SDS011;63123;50.906;4.198;2023-01-24T06:53:56;9.23;;;8.52;;
74616;SDS011;63123;50.906;4.198;2023-01-24T06:56:22;9.50;;;8.70;;
74616;SDS011;63123;50.906;4.198;2023-01-24T06:58:48;9.65;;;8.93;;
74616;SDS011;63123;50.906;4.198;2023-01-24T07:01:13;8.65;;;7.85;;
74616;SDS011;63123;50.906;4.198;2023-01-24T07:03:39;9.23;;;8.43;;
74616;SDS011;63123;50.906;4.198;2023-01-24T07:06:04;9.82;;;9.02;;
74616;SDS011;63123;50.906;4.198;2023-01-24T07:08:30;9.70;;;8.90;;
74616;SDS011;63123;50.906;4.198;2023-01-24T07:10:59;9.70;;;8.98;;
74616;SDS011;63123;50.906;4.198;2023-01-24T07:13:24;8.90;;;8.20;;
74616;SDS011;63123;50.906;4.198;2023-01-24T07:15:50;9.60;;;8.75;;
74616;SDS011;63123;50.906;4.198;2023-01-24T07:18:16;9.30;;;8.50;;
74616;SDS011;63123;50.906;4.198;2023-01-24T07:20:44;9.95;;;9.15;;
74616;SDS011;63123;50.906;4.198;2023-01-24T07:23:23;9.65;;;8.85;;
74616;SDS011;63123;50.906;4.198;2023-01-24T07:25:53;9.13;;;8.43;;
74616;SDS011;63123;50.906;4.198;2023-01-24T07:28:18;9.88;;;9.07;;
74616;SDS011;63123;50.906;4.198;2023-01-24T07:30:44;9.55;;;8.75;;
74616;SDS011;63123;50.906;4.198;2023-01-24T07:33:11;9.88;;;9.02;;
74616;SDS011;63123;50.906;4.198;2023-01-24T07:35:38;9.45;;;8.70;;
74616;SDS011;63123;50.906;4.198;2023-01-24T07:38:04;9.52;;;8.82;;
74616;SDS011;63123;50.906;4.198;2023-01-24T07:40:30;10.15;;;9.25;;
74616;SDS011;63123;50.906;4.198;2023-01-24T07:42:58;10.25;;;9.40;;
74616;SDS011;63123;50.906;4.198;2023-01-24T07:45:24;10.82;;;9.93;;
74616;SDS011;63123;50.906;4.198;2023-01-24T07:47:53;10.20;;;9.30;;
74616;SDS011;63123;50.906;4.198;2023-01-24T07:50:23;10.00;;;9.15;;
74616;SDS011;63123;50.906;4.198;2023-01-24T07:52:50;10.35;;;9.52;;
74616;SDS011;63123;50.906;4.198;2023-01-24T07:55:16;9.63;;;8.82;;
74616;SDS011;63123;50.906;4.198;2023-01-24T07:57:42;9.88;;;9.07;;
74616;SDS011;63123;50.906;4.198;2023-01-24T08:00:08;9.90;;;9.00;;
74616;SDS011;63123;50.906;4.198;2023-01-24T08:02:34;10.48;;;9.57;;
74616;SDS011;63123;50.906;4.198;2023-01-24T08:05:00;10.23;;;9.32;;
74616;SDS011;63123;50.906;4.198;2023-01-24T08:07:25;10.73;;;9.90;;
74616;SDS011;63123;50.906;4.198;2023-01-24T08:09:51;9.45;;;8.70;;
74616;SDS011;63123;50.906;4.198;2023-01-24T08:12:17;9.75;;;8.95;;
74616;SDS011;63123;50.906;4.198;2023-01-24T08:14:42;10.65;;;9.73;;
74616;SDS011;63123;50.906;4.198;2023-01-24T08:17:08;9.68;;;8.88;;
74616;SDS011;63123;50.906;4.198;2023-01-24T08:19:34;10.25;;;9.38;;
74616;SDS011;63123;50.906;4.198;2023-01-24T08:22:00;9.68;;;8.88;;
74616;SDS011;63123;50.906;4.198;2023-01-24T08:24:27;9.27;;;8.48;;
74616;SDS011;63123;50.906;4.198;2023-01-24T08:26:53;9.85;;;8.98;;
74616;SDS011;63123;50.906;4.198;2023-01-24T08:29:18;8.95;;;8.18;;
74616;SDS011;63123;50.906;4.198;2023-01-24T08:31:44;9.65;;;8.85;;
74616;SDS011;63123;50.906;4.198;2023-01-24T08:34:10;10.27;;;9.48;;
74616;SDS011;63123;50.906;4.198;2023-01-24T08:36:35;9.70;;;8.90;;
74616;SDS011;63123;50.906;4.198;2023-01-24T08:39:01;10.13;;;9.32;;
74616;SDS011;63123;50.906;4.198;2023-01-24T08:41:29;9.43;;;8.63;;
74616;SDS011;63123;50.906;4.198;2023-01-24T08:43:54;10.73;;;9.82;;
74616;SDS011;63123;50.906;4.198;2023-01-24T08:46:20;11.02;;;10.13;;
74616;SDS011;63123;50.906;4.198;2023-01-24T08:48:45;10.30;;;9.43;;
74616;SDS011;63123;50.906;4.198;2023-01-24T08:51:11;10.45;;;9.65;;
74616;SDS011;63123;50.906;4.198;2023-01-24T08:53:37;9.88;;;9.07;;
74616;SDS011;63123;50.906;4.198;2023-01-24T08:56:02;10.55;;;9.65;;
74616;SDS011;63123;50.906;4.198;2023-01-24T08:58:28;11.50;;;10.50;;
74616;SDS011;63123;50.906;4.198;2023-01-24T09:00:57;11.65;;;10.65;;
74616;SDS011;63123;50.906;4.198;2023-01-24T09:03:22;11.63;;;10.73;;
74616;SDS011;63123;50.906;4.198;2023-01-24T09:05:48;11.40;;;10.50;;
74616;SDS011;63123;50.906;4.198;2023-01-24T09:08:13;12.57;;;11.57;;
74616;SDS011;63123;50.906;4.198;2023-01-24T09:10:39;10.98;;;10.07;;
74616;SDS011;63123;50.906;4.198;2023-01-24T09:13:04;10.05;;;9.25;;
74616;SDS011;63123;50.906;4.198;2023-01-24T09:15:30;11.77;;;10.77;;
74616;SDS011;63123;50.906;4.198;2023-01-24T09:17:55;11.75;;;10.75;;
74616;SDS011;63123;50.906;4.198;2023-01-24T09:20:24;11.98;;;11.02;;
74616;SDS011;63123;50.906;4.198;2023-01-24T09:22:50;11.48;;;10.48;;
74616;SDS011;63123;50.906;4.198;2023-01-24T09:25:15;12.18;;;11.13;;
74616;SDS011;63123;50.906;4.198;2023-01-24T09:27:41;12.68;;;11.68;;
74616;SDS011;63123;50.906;4.198;2023-01-24T09:30:07;11.45;;;10.55;;
74616;SDS011;63123;50.906;4.198;2023-01-24T09:32:34;13.13;;;12.05;;
74616;SDS011;63123;50.906;4.198;2023-01-24T09:35:00;12.95;;;11.85;;
74616;SDS011;63123;50.906;4.198;2023-01-24T09:37:26;13.73;;;12.52;;
74616;SDS011;63123;50.906;4.198;2023-01-24T09:39:52;13.93;;;12.82;;
74616;SDS011;63123;50.906;4.198;2023-01-24T09:42:26;13.07;;;11.98;;
74616;SDS011;63123;50.906;4.198;2023-01-24T09:47:41;13.82;;;12.73;;
74616;SDS011;63123;50.906;4.198;2023-01-24T09:50:16;12.93;;;11.63;;
74616;SDS011;63123;50.906;4.198;2023-01-24T09:52:46;14.52;;;13.32;;
74616;SDS011;63123;50.906;4.198;2023-01-24T09:55:27;13.93;;;12.82;;
74616;SDS011;63123;50.906;4.198;2023-01-24T09:57:59;14.07;;;12.98;;
74616;SDS011;63123;50.906;4.198;2023-01-24T10:00:28;14.20;;;12.95;;
74616;SDS011;63123;50.906;4.198;2023-01-24T10:03:01;13.63;;;12.52;;
74616;SDS011;63123;50.906;4.198;2023-01-24T10:05:32;12.90;;;11.88;;
74616;SDS011;63123;50.906;4.198;2023-01-24T10:16:43;15.10;;;13.80;;
74616;SDS011;63123;50.906;4.198;2023-01-24T10:27:50;15.23;;;13.95;;
74616;SDS011;63123;50.906;4.198;2023-01-24T10:30:30;16.02;;;14.73;;
74616;SDS011;63123;50.906;4.198;2023-01-24T10:33:03;14.73;;;13.43;;
74616;SDS011;63123;50.906;4.198;2023-01-24T10:35:37;16.10;;;14.80;;
74616;SDS011;63123;50.906;4.198;2023-01-24T10:38:09;15.65;;;14.25;;
74616;SDS011;63123;50.906;4.198;2023-01-24T10:40:48;14.98;;;13.68;;
74616;SDS011;63123;50.906;4.198;2023-01-24T10:43:19;16.30;;;14.93;;
74616;SDS011;63123;50.906;4.198;2023-01-24T10:48:35;16.13;;;14.75;;
74616;SDS011;63123;50.906;4.198;2023-01-24T10:51:10;15.38;;;14.07;;
74616;SDS011;63123;50.906;4.198;2023-01-24T10:53:41;16.20;;;14.80;;
74616;SDS011;63123;50.906;4.198;2023-01-24T10:56:07;14.52;;;13.32;;
74616;SDS011;63123;50.906;4.198;2023-01-24T11:01:17;15.20;;;14.00;;
74616;SDS011;63123;50.906;4.198;2023-01-24T11:03:44;16.13;;;14.80;;
74616;SDS011;63123;50.906;4.198;2023-01-24T11:06:31;15.85;;;14.45;;
74616;SDS011;63123;50.906;4.198;2023-01-24T11:09:12;15.48;;;14.18;;
74616;SDS011;63123;50.906;4.198;2023-01-24T11:11:49;14.95;;;13.70;;
74616;SDS011;63123;50.906;4.198;2023-01-24T11:14:17;15.30;;;14.10;;
74616;SDS011;63123;50.906;4.198;2023-01-24T11:16:50;15.63;;;14.32;;
74616;SDS011;63123;50.906;4.198;2023-01-24T11:22:18;15.38;;;14.07;;
74616;SDS011;63123;50.906;4.198;2023-01-24T11:24:46;16.33;;;15.02;;
74616;SDS011;63123;50.906;4.198;2023-01-24T11:27:16;14.98;;;13.82;;
74616;SDS011;63123;50.906;4.198;2023-01-24T11:29:43;15.75;;;14.40;;
74616;SDS011;63123;50.906;4.198;2023-01-24T11:35:11;14.88;;;13.70;;
74616;SDS011;63123;50.906;4.198;2023-01-24T11:40:35;15.93;;;14.63;;
74616;SDS011;63123;50.906;4.198;2023-01-24T11:46:26;16.65;;;15.25;;
74616;SDS011;63123;50.906;4.198;2023-01-24T12:00:56;17.73;;;16.33;;
74616;SDS011;63123;50.906;4.198;2023-01-24T12:03:44;15.00;;;13.80;;
74616;SDS011;63123;50.906;4.198;2023-01-24T12:09:26;17.17;;;15.77;;
74616;SDS011;63123;50.906;4.198;2023-01-24T12:24:15;15.25;;;13.98;;
74616;SDS011;63123;50.906;4.198;2023-01-24T12:26:45;15.45;;;14.15;;
74616;SDS011;63123;50.906;4.198;2023-01-24T12:29:21;15.20;;;13.90;;
74616;SDS011;63123;50.906;4.198;2023-01-24T12:32:25;14.95;;;13.65;;
74616;SDS011;63123;50.906;4.198;2023-01-24T12:35:05;13.70;;;12.50;;
74616;SDS011;63123;50.906;4.198;2023-01-24T12:37:44;15.18;;;13.82;;
74616;SDS011;63123;50.906;4.198;2023-01-24T12:45:59;16.60;;;15.20;;
74616;SDS011;63123;50.906;4.198;2023-01-24T12:48:50;14.52;;;13.23;;
74616;SDS011;63123;50.906;4.198;2023-01-24T12:51:42;14.63;;;13.32;;
74616;SDS011;63123;50.906;4.198;2023-01-24T12:56:47;15.55;;;13.15;;
74616;SDS011;63123;50.906;4.198;2023-01-24T12:59:28;15.13;;;13.80;;
74616;SDS011;63123;50.906;4.198;2023-01-24T13:04:37;15.80;;;14.20;;
74616;SDS011;63123;50.906;4.198;2023-01-24T13:12:32;14.90;;;13.70;;
74616;SDS011;63123;50.906;4.198;2023-01-24T13:15:00;14.32;;;13.02;;
74616;SDS011;63123;50.906;4.198;2023-01-24T13:25:45;14.95;;;13.65;;
74616;SDS011;63123;50.906;4.198;2023-01-24T13:28:22;15.82;;;14.43;;
74616;SDS011;63123;50.906;4.198;2023-01-24T13:31:21;15.20;;;13.90;;
74616;SDS011;63123;50.906;4.198;2023-01-24T13:34:03;15.32;;;14.02;;
74616;SDS011;63123;50.906;4.198;2023-01-24T13:36:35;14.18;;;12.98;;
74616;SDS011;63123;50.906;4.198;2023-01-24T13:39:03;15.55;;;14.25;;
74616;SDS011;63123;50.906;4.198;2023-01-24T13:49:31;13.50;;;12.40;;
74616;SDS011;63123;50.906;4.198;2023-01-24T13:51:59;15.43;;;14.13;;
74616;SDS011;63123;50.906;4.198;2023-01-24T14:00:01;14.48;;;13.27;;
74616;SDS011;63123;50.906;4.198;2023-01-24T14:05:41;15.77;;;14.48;;
74616;SDS011;63123;50.906;4.198;2023-01-24T14:10:47;14.77;;;13.48;;
74616;SDS011;63123;50.906;4.198;2023-01-24T14:16:10;15.10;;;13.70;;
74616;SDS011;63123;50.906;4.198;2023-01-24T14:27:34;14.68;;;13.48;;
74616;SDS011;63123;50.906;4.198;2023-01-24T14:40:41;16.13;;;14.60;;
74616;SDS011;63123;50.906;4.198;2023-01-24T14:43:08;15.70;;;14.40;;
74616;SDS011;63123;50.906;4.198;2023-01-24T14:45:34;14.75;;;13.55;;
74616;SDS011;63123;50.906;4.198;2023-01-24T14:48:01;15.35;;;14.02;;
74616;SDS011;63123;50.906;4.198;2023-01-24T14:50:33;14.70;;;13.52;;
74616;SDS011;63123;50.906;4.198;2023-01-24T14:53:00;14.82;;;13.63;;
74616;SDS011;63123;50.906;4.198;2023-01-24T14:55:31;16.52;;;15.05;;
74616;SDS011;63123;50.906;4.198;2023-01-24T15:00:54;15.85;;;14.35;;
74616;SDS011;63123;50.906;4.198;2023-01-24T15:03:26;15.60;;;14.30;;
74616;SDS011;63123;50.906;4.198;2023-01-24T15:06:00;16.95;;;15.65;;
74616;SDS011;63123;50.906;4.198;2023-01-24T15:08:26;14.60;;;13.35;;
74616;SDS011;63123;50.906;4.198;2023-01-24T15:10:54;15.65;;;14.40;;
74616;SDS011;63123;50.906;4.198;2023-01-24T15:16:00;17.40;;;15.98;;
74616;SDS011;63123;50.906;4.198;2023-01-24T15:21:04;15.88;;;14.52;;
74616;SDS011;63123;50.906;4.198;2023-01-24T15:23:31;15.65;;;14.38;;
74616;SDS011;63123;50.906;4.198;2023-01-24T15:25:57;17.10;;;15.52;;
74616;SDS011;63123;50.906;4.198;2023-01-24T15:28:40;14.63;;;13.32;;
74616;SDS011;63123;50.906;4.198;2023-01-24T15:31:17;16.70;;;15.40;;
74616;SDS011;63123;50.906;4.198;2023-01-24T15:33:52;16.33;;;14.93;;
74616;SDS011;63123;50.906;4.198;2023-01-24T15:38:57;14.68;;;13.55;;
74616;SDS011;63123;50.906;4.198;2023-01-24T15:41:24;16.42;;;15.13;;
74616;SDS011;63123;50.906;4.198;2023-01-24T15:44:14;15.68;;;14.38;;
74616;SDS011;63123;50.906;4.198;2023-01-24T15:46:42;15.57;;;14.27;;
74616;SDS011;63123;50.906;4.198;2023-01-24T15:49:34;16.60;;;15.20;;
74616;SDS011;63123;50.906;4.198;2023-01-24T15:52:19;17.83;;;16.33;;
74616;SDS011;63123;50.906;4.198;2023-01-24T15:54:50;17.10;;;15.70;;
74616;SDS011;63123;50.906;4.198;2023-01-24T15:57:28;15.90;;;14.60;;
74616;SDS011;63123;50.906;4.198;2023-01-24T16:00:48;16.20;;;14.82;;
74616;SDS011;63123;50.906;4.198;2023-01-24T16:02:48;15.48;;;14.18;;
74616;SDS011;63123;50.906;4.198;2023-01-24T16:05:15;16.45;;;15.15;;
74616;SDS011;63123;50.906;4.198;2023-01-24T16:07:41;16.13;;;14.85;;
74616;SDS011;63123;50.906;4.198;2023-01-24T16:10:11;15.73;;;14.43;;
74616;SDS011;63123;50.906;4.198;2023-01-24T16:12:37;15.70;;;14.50;;
74616;SDS011;63123;50.906;4.198;2023-01-24T16:15:03;15.52;;;14.32;;
74616;SDS011;63123;50.906;4.198;2023-01-24T16:17:29;15.45;;;14.20;;
74616;SDS011;63123;50.906;4.198;2023-01-24T16:19:55;15.30;;;14.10;;
74616;SDS011;63123;50.906;4.198;2023-01-24T16:22:20;16.65;;;15.32;;
74616;SDS011;63123;50.906;4.198;2023-01-24T16:24:46;16.65;;;15.27;;
74616;SDS011;63123;50.906;4.198;2023-01-24T16:27:12;16.42;;;14.77;;
74616;SDS011;63123;50.906;4.198;2023-01-24T16:29:38;16.35;;;14.98;;
74616;SDS011;63123;50.906;4.198;2023-01-24T16:32:15;16.17;;;14.88;;
74616;SDS011;63123;50.906;4.198;2023-01-24T16:34:48;16.17;;;14.88;;
74616;SDS011;63123;50.906;4.198;2023-01-24T16:37:14;15.60;;;14.32;;
74616;SDS011;63123;50.906;4.198;2023-01-24T16:39:40;16.67;;;15.35;;
74616;SDS011;63123;50.906;4.198;2023-01-24T16:42:07;16.45;;;15.25;;
74616;SDS011;63123;50.906;4.198;2023-01-24T16:44:37;16.75;;;15.30;;
74616;SDS011;63123;50.906;4.198;2023-01-24T16:47:02;15.63;;;14.32;;
74616;SDS011;63123;50.906;4.198;2023-01-24T16:49:28;16.17;;;14.88;;
74616;SDS011;63123;50.906;4.198;2023-01-24T16:51:53;16.42;;;15.13;;
74616;SDS011;63123;50.906;4.198;2023-01-24T16:54:19;16.02;;;14.82;;
74616;SDS011;63123;50.906;4.198;2023-01-24T16:56:45;16.45;;;15.15;;
74616;SDS011;63123;50.906;4.198;2023-01-24T16:59:10;15.90;;;14.60;;
74616;SDS011;63123;50.906;4.198;2023-01-24T17:01:36;16.92;;;15.55;;
74616;SDS011;63123;50.906;4.198;2023-01-24T17:04:01;16.33;;;14.98;;
74616;SDS011;63123;50.906;4.198;2023-01-24T17:06:27;16.45;;;15.15;;
74616;SDS011;63123;50.906;4.198;2023-01-24T17:08:53;16.00;;;14.68;;
74616;SDS011;63123;50.906;4.198;2023-01-24T17:11:19;16.27;;;14.98;;
74616;SDS011;63123;50.906;4.198;2023-01-24T17:13:47;16.88;;;15.57;;
74616;SDS011;63123;50.906;4.198;2023-01-24T17:16:16;16.45;;;14.98;;
74616;SDS011;63123;50.906;4.198;2023-01-24T17:18:42;17.15;;;15.75;;
74616;SDS011;63123;50.906;4.198;2023-01-24T17:21:14;17.05;;;15.73;;